createdAt,value
2022-10-24T00:00:22.891Z,13.51
2022-10-24T00:01:24.750Z,13.52
2022-10-24T00:02:26.631Z,13.52
2022-10-24T00:03:28.458Z,13.51
2022-10-24T00:04:30.256Z,13.51
2022-10-24T00:05:32.087Z,13.52
2022-10-24T00:06:33.902Z,13.50
2022-10-24T00:07:35.739Z,13.50
2022-10-24T00:08:37.573Z,13.49
2022-10-24T00:09:39.381Z,13.47
2022-10-24T00:10:41.207Z,13.49
2022-10-24T00:11:43.060Z,13.48
2022-10-24T00:12:45.196Z,13.49
2022-10-24T00:13:47.334Z,13.50
2022-10-24T00:14:49.145Z,13.49
2022-10-24T00:15:50.969Z,13.48
2022-10-24T00:16:52.794Z,13.45
2022-10-24T00:17:54.670Z,13.46
2022-10-24T00:18:56.566Z,13.46
2022-10-24T00:19:58.385Z,13.43
2022-10-24T00:21:00.205Z,13.45
2022-10-24T00:22:02.037Z,13.44
2022-10-24T00:23:03.917Z,13.42
2022-10-24T00:24:05.731Z,13.41
2022-10-24T00:25:08.588Z,13.40
2022-10-24T00:26:11.245Z,13.37
2022-10-24T00:27:13.077Z,13.36
2022-10-24T00:28:15.029Z,13.37
2022-10-24T00:29:16.848Z,13.37
2022-10-24T00:30:18.791Z,13.38
2022-10-24T00:31:20.632Z,13.36
2022-10-24T00:32:22.445Z,13.34
2022-10-24T00:33:24.299Z,13.36
2022-10-24T00:34:26.263Z,13.36
2022-10-24T00:35:28.086Z,13.36
2022-10-24T00:36:29.896Z,13.38
2022-10-24T00:37:31.716Z,13.40
2022-10-24T00:38:33.588Z,13.42
2022-10-24T00:39:35.432Z,13.43
2022-10-24T00:40:37.361Z,13.45
2022-10-24T00:41:39.179Z,13.46
2022-10-24T00:42:41.012Z,13.49
2022-10-24T00:43:42.895Z,13.49
2022-10-24T00:44:44.731Z,13.51
2022-10-24T00:45:46.554Z,13.52
2022-10-24T00:46:48.377Z,13.50
2022-10-24T00:47:50.204Z,13.50
2022-10-24T00:48:52.077Z,13.48
2022-10-24T00:49:54.080Z,13.45
2022-10-24T00:50:55.920Z,13.44
2022-10-24T00:51:57.757Z,13.44
2022-10-24T00:52:59.580Z,13.44
2022-10-24T00:54:01.446Z,13.45
2022-10-24T00:55:03.260Z,13.43
2022-10-24T00:56:05.191Z,13.43
2022-10-24T00:57:07.011Z,13.43
2022-10-24T00:58:08.833Z,13.42
2022-10-24T00:59:10.687Z,13.42
2022-10-24T01:00:12.617Z,13.42
2022-10-24T01:01:14.579Z,13.42
2022-10-24T01:02:16.457Z,13.40
2022-10-24T01:03:18.285Z,13.35
2022-10-24T01:04:20.162Z,13.35
2022-10-24T01:05:22.001Z,13.32
2022-10-24T01:06:24.049Z,13.29
2022-10-24T01:07:25.875Z,13.26
2022-10-24T01:08:27.692Z,13.24
2022-10-24T01:09:29.563Z,13.23
2022-10-24T01:10:31.500Z,13.23
2022-10-24T01:11:33.519Z,13.23
2022-10-24T01:12:35.356Z,13.23
2022-10-24T01:13:37.169Z,13.23
2022-10-24T01:14:39.046Z,13.22
2022-10-24T01:15:40.880Z,13.22
2022-10-24T01:16:42.900Z,13.25
2022-10-24T01:17:44.712Z,13.26
2022-10-24T01:18:46.591Z,13.28
2022-10-24T01:19:48.527Z,13.28
2022-10-24T01:20:50.526Z,13.28
2022-10-24T01:21:52.303Z,13.29
2022-10-24T01:22:54.138Z,13.29
2022-10-24T01:23:55.953Z,13.30
2022-10-24T01:24:57.822Z,13.31
2022-10-24T01:25:59.641Z,13.34
2022-10-24T01:27:01.482Z,13.35
2022-10-24T01:28:03.318Z,13.36
2022-10-24T01:29:05.129Z,13.37
2022-10-24T01:30:07.091Z,13.40
2022-10-24T01:31:08.920Z,13.43
2022-10-24T01:32:10.752Z,13.44
2022-10-24T01:33:12.567Z,13.44
2022-10-24T01:34:14.380Z,13.43
2022-10-24T01:35:16.229Z,13.43
2022-10-24T01:36:18.311Z,13.43
2022-10-24T01:37:20.136Z,13.44
2022-10-24T01:38:21.953Z,13.45
2022-10-24T01:39:23.801Z,13.46
2022-10-24T01:40:25.682Z,13.45
2022-10-24T01:41:27.485Z,13.45
2022-10-24T01:42:29.303Z,13.46
2022-10-24T01:43:31.131Z,13.47
2022-10-24T01:44:32.960Z,13.47
2022-10-24T01:45:34.838Z,13.49
2022-10-24T01:46:36.634Z,13.51
2022-10-24T01:47:38.460Z,13.52
2022-10-24T01:48:40.286Z,13.54
2022-10-24T01:49:42.123Z,13.55
2022-10-24T01:50:43.974Z,13.56
2022-10-24T01:51:45.826Z,13.58
2022-10-24T01:52:47.730Z,13.59
2022-10-24T01:53:49.683Z,13.59
2022-10-24T01:54:51.509Z,13.58
2022-10-24T01:55:53.373Z,13.57
2022-10-24T01:56:55.206Z,13.55
2022-10-24T01:57:57.043Z,13.56
2022-10-24T01:58:58.856Z,13.57
2022-10-24T02:00:00.677Z,13.58
2022-10-24T02:01:02.614Z,13.59
2022-10-24T02:02:04.466Z,13.58
2022-10-24T02:03:06.291Z,13.57
2022-10-24T02:04:08.098Z,13.57
2022-10-24T02:05:10.026Z,13.56
2022-10-24T02:06:12.913Z,13.55
2022-10-24T02:07:14.818Z,13.55
2022-10-24T02:08:16.645Z,13.56
2022-10-24T02:09:18.481Z,13.56
2022-10-24T02:10:20.717Z,13.55
2022-10-24T02:11:22.588Z,13.54
2022-10-24T02:12:24.413Z,13.55
2022-10-24T02:13:26.234Z,13.53
2022-10-24T02:14:28.052Z,13.52
2022-10-24T02:15:29.877Z,13.50
2022-10-24T02:16:31.854Z,13.48
2022-10-24T02:17:33.690Z,13.46
2022-10-24T02:18:35.507Z,13.46
2022-10-24T02:19:37.325Z,13.46
2022-10-24T02:20:39.144Z,13.47
2022-10-24T02:21:40.977Z,13.45
2022-10-24T02:22:42.844Z,13.44
2022-10-24T02:23:44.653Z,13.43
2022-10-24T02:24:46.456Z,13.44
2022-10-24T02:25:48.254Z,13.43
2022-10-24T02:26:50.102Z,13.42
2022-10-24T02:27:51.910Z,13.41
2022-10-24T02:28:53.709Z,13.41
2022-10-24T02:29:55.518Z,13.38
2022-10-24T02:30:57.434Z,13.38
2022-10-24T02:31:59.282Z,13.39
2022-10-24T02:33:01.061Z,13.40
2022-10-24T02:34:02.933Z,13.41
2022-10-24T02:35:04.792Z,13.42
2022-10-24T02:36:06.810Z,13.45
2022-10-24T02:37:08.649Z,13.46
2022-10-24T02:38:10.464Z,13.46
2022-10-24T02:39:12.269Z,13.46
2022-10-24T02:40:14.885Z,13.47
2022-10-24T02:41:16.697Z,13.49
2022-10-24T02:42:18.581Z,13.50
2022-10-24T02:43:20.315Z,13.51
2022-10-24T02:44:22.122Z,13.54
2022-10-24T02:45:23.926Z,13.54
2022-10-24T02:46:25.729Z,13.54
2022-10-24T02:47:27.591Z,13.55
2022-10-24T02:48:29.378Z,13.56
2022-10-24T02:49:31.182Z,13.57
2022-10-24T02:50:33.094Z,13.58
2022-10-24T02:51:34.897Z,13.57
2022-10-24T02:52:36.729Z,13.57
2022-10-24T02:53:38.553Z,13.59
2022-10-24T02:54:40.372Z,13.59
2022-10-24T02:55:42.184Z,13.59
2022-10-24T02:56:43.967Z,13.58
2022-10-24T02:57:45.812Z,13.57
2022-10-24T02:58:47.632Z,13.57
2022-10-24T02:59:49.434Z,13.57
2022-10-24T03:00:51.281Z,13.58
2022-10-24T03:01:53.113Z,13.58
2022-10-24T03:02:54.990Z,13.59
2022-10-24T03:03:56.692Z,13.60
2022-10-24T03:04:58.499Z,13.61
2022-10-24T03:06:00.305Z,13.61
2022-10-24T03:07:02.100Z,13.60
2022-10-24T03:08:03.945Z,13.60
2022-10-24T03:09:05.900Z,13.61
2022-10-24T03:10:07.790Z,13.61
2022-10-24T03:11:09.608Z,13.62
2022-10-24T03:12:11.423Z,13.63
2022-10-24T03:13:13.265Z,13.64
2022-10-24T03:14:15.070Z,13.63
2022-10-24T03:15:16.873Z,13.63
2022-10-24T03:16:18.694Z,13.62
2022-10-24T03:17:20.489Z,13.62
2022-10-24T03:18:22.348Z,13.63
2022-10-24T03:19:24.134Z,13.63
2022-10-24T03:20:25.938Z,13.64
2022-10-24T03:21:27.749Z,13.64
2022-10-24T03:22:30.631Z,13.67
2022-10-24T03:23:31.209Z,13.68
2022-10-24T03:24:43.951Z,13.68
2022-10-24T03:25:37.922Z,13.71
2022-10-24T03:26:39.749Z,13.72
2022-10-24T03:27:41.701Z,13.73
2022-10-24T03:28:43.757Z,13.74
2022-10-24T03:29:45.599Z,13.76
2022-10-24T03:30:47.531Z,13.74
2022-10-24T03:31:49.355Z,13.74
2022-10-24T03:32:51.176Z,13.78
2022-10-24T03:33:53.051Z,13.78
2022-10-24T03:34:54.886Z,13.80
2022-10-24T03:35:56.697Z,13.80
2022-10-24T03:36:58.615Z,13.80
2022-10-24T03:38:00.444Z,13.82
2022-10-24T03:39:02.321Z,13.83
2022-10-24T03:40:04.358Z,13.82
2022-10-24T03:41:06.179Z,13.82
2022-10-24T03:42:08.025Z,13.83
2022-10-24T03:43:09.859Z,13.83
2022-10-24T03:44:11.721Z,13.83
2022-10-24T03:45:13.547Z,13.83
2022-10-24T03:46:16.696Z,13.83
2022-10-24T03:47:18.511Z,13.83
2022-10-24T03:48:20.329Z,13.83
2022-10-24T03:49:22.183Z,13.85
2022-10-24T03:50:24.016Z,13.86
2022-10-24T03:51:25.834Z,13.86
2022-10-24T03:52:27.651Z,13.87
2022-10-24T03:53:29.461Z,13.87
2022-10-24T03:54:31.323Z,13.88
2022-10-24T03:55:33.236Z,13.88
2022-10-24T03:56:35.059Z,13.88
2022-10-24T03:57:36.895Z,13.89
2022-10-24T03:58:38.710Z,13.89
2022-10-24T03:59:40.587Z,13.89
2022-10-24T04:00:42.435Z,13.90
2022-10-24T04:01:44.350Z,13.91
2022-10-24T04:03:52.197Z,14.02
2022-10-24T04:04:54.043Z,13.90
2022-10-24T04:05:55.837Z,13.91
2022-10-24T04:06:57.635Z,13.91
2022-10-24T04:07:59.664Z,13.91
2022-10-24T04:09:01.485Z,13.91
2022-10-24T04:10:03.312Z,13.92
2022-10-24T04:11:05.146Z,13.93
2022-10-24T04:12:06.949Z,13.94
2022-10-24T04:13:08.773Z,13.94
2022-10-24T04:14:10.577Z,13.94
2022-10-24T04:15:12.443Z,13.95
2022-10-24T04:16:14.239Z,13.95
2022-10-24T04:17:16.034Z,13.96
2022-10-24T04:18:17.851Z,13.96
2022-10-24T04:19:19.647Z,13.96
2022-10-24T04:20:21.501Z,13.96
2022-10-24T04:21:23.315Z,13.96
2022-10-24T04:22:25.120Z,13.96
2022-10-24T04:23:26.919Z,13.96
2022-10-24T04:24:28.725Z,13.98
2022-10-24T04:25:30.580Z,13.98
2022-10-24T04:26:32.499Z,13.98
2022-10-24T04:27:34.309Z,13.98
2022-10-24T04:28:36.104Z,13.99
2022-10-24T04:29:37.904Z,13.98
2022-10-24T04:30:39.776Z,14.00
2022-10-24T04:31:41.578Z,13.99
2022-10-24T04:32:43.738Z,14.01
2022-10-24T04:33:45.880Z,14.00
2022-10-24T04:34:47.686Z,14.00
2022-10-24T04:35:49.542Z,14.00
2022-10-24T04:36:51.351Z,14.02
2022-10-24T04:37:53.142Z,14.01
2022-10-24T04:38:54.970Z,14.02
2022-10-24T04:39:56.756Z,14.02
2022-10-24T04:40:58.599Z,14.03
2022-10-24T04:42:00.436Z,14.03
2022-10-24T04:43:02.231Z,14.02
2022-10-24T04:44:04.024Z,14.03
2022-10-24T04:45:05.833Z,14.02
2022-10-24T04:46:08.092Z,14.02
2022-10-24T04:47:09.919Z,14.03
2022-10-24T04:48:11.687Z,14.02
2022-10-24T04:49:13.498Z,14.03
2022-10-24T04:50:15.394Z,14.03
2022-10-24T04:51:19.993Z,14.03
2022-10-24T04:52:20.860Z,14.04
2022-10-24T04:53:22.661Z,14.03
2022-10-24T04:54:24.474Z,14.04
2022-10-24T04:55:26.369Z,14.04
2022-10-24T04:56:28.225Z,14.04
2022-10-24T04:57:30.139Z,14.04
2022-10-24T04:58:31.934Z,14.04
2022-10-24T04:59:33.738Z,14.05
2022-10-24T05:00:35.736Z,14.04
2022-10-24T05:01:37.616Z,14.04
2022-10-24T05:02:39.489Z,14.05
2022-10-24T05:03:41.312Z,14.05
2022-10-24T05:04:43.014Z,14.06
2022-10-24T05:05:44.830Z,14.05
2022-10-24T05:06:46.682Z,14.05
2022-10-24T05:07:48.485Z,14.06
2022-10-24T05:08:50.270Z,14.06
2022-10-24T05:09:52.086Z,14.06
2022-10-24T05:10:53.998Z,14.08
2022-10-24T05:11:55.841Z,14.09
2022-10-24T05:12:57.657Z,14.11
2022-10-24T05:13:59.473Z,14.09
2022-10-24T05:15:01.283Z,14.09
2022-10-24T05:16:03.080Z,14.10
2022-10-24T05:17:04.828Z,14.11
2022-10-24T05:18:06.621Z,14.12
2022-10-24T05:19:08.413Z,14.13
2022-10-24T05:20:11.048Z,14.13
2022-10-24T05:21:12.871Z,14.14
2022-10-24T05:22:14.729Z,14.13
2022-10-24T05:23:16.569Z,14.12
2022-10-24T05:24:18.359Z,14.11
2022-10-24T05:25:20.162Z,14.09
2022-10-24T05:26:21.980Z,14.07
2022-10-24T05:27:23.848Z,14.02
2022-10-24T05:28:25.790Z,13.99
2022-10-24T05:29:27.589Z,13.97
2022-10-24T05:30:29.414Z,13.93
2022-10-24T05:32:34.850Z,13.90
2022-10-24T05:33:36.622Z,13.91
2022-10-24T05:34:38.422Z,13.91
2022-10-24T05:35:40.215Z,13.92
2022-10-24T05:36:42.156Z,13.93
2022-10-24T05:37:44.037Z,13.93
2022-10-24T05:38:45.855Z,13.93
2022-10-24T05:39:47.553Z,13.98
2022-10-24T05:40:49.368Z,14.00
2022-10-24T05:41:54.626Z,14.03
2022-10-24T05:42:54.857Z,14.02
2022-10-24T05:43:56.908Z,14.03
2022-10-24T05:44:58.721Z,14.02
2022-10-24T05:46:00.549Z,14.03
2022-10-24T05:47:02.359Z,14.05
2022-10-24T05:48:04.199Z,14.07
2022-10-24T05:49:06.021Z,14.08
2022-10-24T05:50:08.624Z,14.09
2022-10-24T05:51:10.433Z,14.08
2022-10-24T05:52:13.361Z,14.11
2022-10-24T05:53:15.213Z,14.12
2022-10-24T05:54:17.006Z,14.14
2022-10-24T05:55:18.811Z,14.15
2022-10-24T05:56:20.843Z,14.16
2022-10-24T05:57:22.651Z,14.20
2022-10-24T05:58:24.526Z,14.22
2022-10-24T05:59:26.697Z,14.24
2022-10-24T06:00:28.550Z,14.27
2022-10-24T06:01:30.343Z,14.31
2022-10-24T06:02:32.213Z,14.33
2022-10-24T06:03:34.157Z,14.34
2022-10-24T06:04:35.959Z,14.36
2022-10-24T06:05:37.784Z,14.37
2022-10-24T06:06:39.562Z,14.41
2022-10-24T06:07:41.375Z,14.43
2022-10-24T06:08:43.247Z,14.45
2022-10-24T06:09:45.064Z,14.46
2022-10-24T06:10:47.070Z,14.47
2022-10-24T06:11:48.919Z,14.49
2022-10-24T06:12:50.739Z,14.50
2022-10-24T06:13:52.574Z,14.51
2022-10-24T06:14:54.472Z,14.53
2022-10-24T06:15:56.333Z,14.54
2022-10-24T06:16:58.233Z,14.54
2022-10-24T06:18:00.062Z,14.54
2022-10-24T06:19:01.955Z,14.56
2022-10-24T06:20:03.983Z,14.58
2022-10-24T06:21:05.800Z,14.59
2022-10-24T06:22:07.628Z,14.62
2022-10-24T06:23:09.455Z,14.64
2022-10-24T06:24:11.336Z,14.66
2022-10-24T06:25:13.169Z,14.68
2022-10-24T06:26:14.985Z,14.71
2022-10-24T06:27:16.819Z,14.72
2022-10-24T06:28:18.799Z,14.73
2022-10-24T06:29:21.040Z,14.73
2022-10-24T06:30:23.354Z,14.74
2022-10-24T06:31:25.165Z,14.74
2022-10-24T06:32:27.022Z,14.75
2022-10-24T06:33:28.854Z,14.77
2022-10-24T06:34:30.716Z,14.79
2022-10-24T06:35:32.536Z,14.82
2022-10-24T06:36:34.516Z,14.84
2022-10-24T06:37:36.459Z,14.87
2022-10-24T06:38:38.359Z,14.88
2022-10-24T06:39:40.213Z,14.88
2022-10-24T06:40:42.041Z,14.90
2022-10-24T06:41:43.836Z,14.92
2022-10-24T06:42:45.666Z,14.94
2022-10-24T06:43:47.488Z,14.96
2022-10-24T06:44:49.380Z,14.98
2022-10-24T06:45:51.416Z,14.99
2022-10-24T06:46:53.229Z,14.99
2022-10-24T06:47:55.470Z,15.01
2022-10-24T06:48:57.617Z,15.01
2022-10-24T06:49:59.570Z,15.02
2022-10-24T06:51:01.494Z,15.06
2022-10-24T06:52:03.326Z,15.08
2022-10-24T06:53:05.148Z,15.09
2022-10-24T06:54:06.971Z,15.06
2022-10-24T06:55:08.820Z,15.10
2022-10-24T06:56:11.365Z,15.11
2022-10-24T06:57:13.166Z,15.10
2022-10-24T06:58:14.997Z,15.10
2022-10-24T06:59:16.822Z,15.12
2022-10-24T07:00:19.106Z,15.12
2022-10-24T07:01:22.326Z,15.13
2022-10-24T07:02:24.451Z,15.13
2022-10-24T07:03:26.519Z,15.13
2022-10-24T07:04:28.323Z,15.14
2022-10-24T07:05:30.177Z,15.12
2022-10-24T07:06:32.002Z,15.13
2022-10-24T07:07:33.835Z,15.14
2022-10-24T07:08:35.656Z,15.15
2022-10-24T07:09:37.447Z,15.15
2022-10-24T07:10:39.417Z,15.16
2022-10-24T07:11:41.253Z,15.18
2022-10-24T07:12:43.498Z,15.19
2022-10-24T07:13:45.777Z,15.19
2022-10-24T07:14:47.581Z,15.18
2022-10-24T07:15:49.426Z,15.19
2022-10-24T07:16:51.377Z,15.21
2022-10-24T07:17:53.192Z,15.22
2022-10-24T07:18:55.022Z,15.22
2022-10-24T07:19:56.836Z,15.21
2022-10-24T07:20:58.785Z,15.22
2022-10-24T07:22:00.565Z,15.23
2022-10-24T07:23:02.383Z,15.26
2022-10-24T07:24:04.184Z,15.26
2022-10-24T07:25:06.003Z,15.26
2022-10-24T07:26:08.187Z,15.27
2022-10-24T07:27:09.999Z,15.27
2022-10-24T07:28:11.811Z,15.28
2022-10-24T07:29:13.643Z,15.29
2022-10-24T07:30:16.561Z,15.28
2022-10-24T07:31:18.421Z,15.28
2022-10-24T07:32:20.285Z,15.29
2022-10-24T07:33:22.084Z,15.29
2022-10-24T07:34:23.904Z,15.30
2022-10-24T07:35:25.740Z,15.30
2022-10-24T07:36:27.592Z,15.30
2022-10-24T07:37:29.427Z,15.30
2022-10-24T07:38:31.256Z,15.31
2022-10-24T07:39:33.086Z,15.33
2022-10-24T07:40:35.077Z,15.35
2022-10-24T07:41:36.937Z,15.36
2022-10-24T07:42:38.745Z,15.35
2022-10-24T07:43:40.559Z,15.35
2022-10-24T07:44:42.378Z,15.37
2022-10-24T07:45:47.829Z,15.37
2022-10-24T07:46:47.887Z,15.39
2022-10-24T07:47:49.713Z,15.39
2022-10-24T07:48:51.558Z,15.38
2022-10-24T07:49:53.369Z,15.39
2022-10-24T07:50:55.291Z,15.38
2022-10-24T07:51:57.167Z,15.37
2022-10-24T07:52:58.960Z,15.36
2022-10-24T07:54:00.766Z,15.37
2022-10-24T07:55:02.600Z,15.38
2022-10-24T07:56:04.522Z,15.37
2022-10-24T07:57:06.381Z,15.36
2022-10-24T07:58:08.196Z,15.38
2022-10-24T07:59:29.897Z,15.37
2022-10-24T08:00:15.793Z,15.37
2022-10-24T08:01:17.637Z,15.36
2022-10-24T08:02:19.719Z,15.36
2022-10-24T08:03:21.586Z,15.35
2022-10-24T08:04:23.347Z,15.35
2022-10-24T08:05:25.138Z,15.35
2022-10-24T08:06:27.047Z,15.36
2022-10-24T08:07:28.938Z,15.35
2022-10-24T08:08:37.101Z,15.33
2022-10-24T08:09:34.361Z,15.32
2022-10-24T08:10:36.433Z,15.32
2022-10-24T08:11:38.235Z,15.31
2022-10-24T08:12:40.105Z,15.28
2022-10-24T08:13:41.899Z,15.26
2022-10-24T08:14:43.739Z,15.23
2022-10-24T08:15:45.548Z,15.22
2022-10-24T08:16:47.330Z,15.25
2022-10-24T08:17:49.226Z,15.26
2022-10-24T08:18:51.313Z,15.29
2022-10-24T08:19:53.116Z,15.30
2022-10-24T08:20:54.927Z,15.31
2022-10-24T08:21:56.745Z,15.34
2022-10-24T08:22:58.596Z,15.36
2022-10-24T08:24:00.427Z,15.39
2022-10-24T08:25:02.234Z,15.41
2022-10-24T08:26:04.145Z,15.43
2022-10-24T08:27:05.985Z,15.44
2022-10-24T08:28:09.149Z,15.41
2022-10-24T08:29:11.170Z,15.41
2022-10-24T08:30:14.050Z,15.41
2022-10-24T08:31:15.858Z,15.42
2022-10-24T08:32:17.658Z,15.44
2022-10-24T08:33:19.665Z,15.44
2022-10-24T08:34:22.146Z,15.46
2022-10-24T08:35:23.980Z,15.47
2022-10-24T08:36:25.816Z,15.49
2022-10-24T08:37:27.674Z,15.49
2022-10-24T08:38:29.524Z,15.48
2022-10-24T08:39:31.345Z,15.46
2022-10-24T08:40:33.266Z,15.47
2022-10-24T08:41:35.096Z,15.47
2022-10-24T08:42:36.916Z,15.45
2022-10-24T08:43:39.195Z,15.41
2022-10-24T08:44:41.030Z,15.39
2022-10-24T08:45:42.880Z,15.37
2022-10-24T08:46:44.686Z,15.39
2022-10-24T08:47:46.513Z,15.39
2022-10-24T08:48:48.338Z,15.41
2022-10-24T08:49:50.711Z,15.42
2022-10-24T08:50:52.925Z,15.43
2022-10-24T08:51:54.720Z,15.44
2022-10-24T08:52:56.591Z,15.46
2022-10-24T08:53:58.453Z,15.46
2022-10-24T08:55:04.742Z,15.47
2022-10-24T08:56:04.038Z,15.48
2022-10-24T08:57:05.856Z,15.49
2022-10-24T08:58:07.676Z,15.50
2022-10-24T08:59:09.559Z,15.51
2022-10-24T09:00:12.409Z,15.53
2022-10-24T09:01:14.324Z,15.54
2022-10-24T09:02:16.343Z,15.55
2022-10-24T09:03:26.580Z,15.56
2022-10-24T09:04:21.978Z,15.57
2022-10-24T09:05:23.872Z,15.59
2022-10-24T09:06:25.695Z,15.59
2022-10-24T09:07:27.543Z,15.59
2022-10-24T09:08:29.358Z,15.62
2022-10-24T09:09:31.213Z,15.62
2022-10-24T09:10:33.036Z,15.62
2022-10-24T09:11:34.867Z,15.62
2022-10-24T09:12:36.692Z,15.63
2022-10-24T09:13:38.521Z,15.64
2022-10-24T09:14:40.376Z,15.63
2022-10-24T09:15:42.181Z,15.64
2022-10-24T09:16:44.107Z,15.65
2022-10-24T09:17:46.195Z,15.66
2022-10-24T09:18:48.270Z,15.66
2022-10-24T09:19:50.134Z,15.66
2022-10-24T09:20:52.040Z,15.66
2022-10-24T09:21:53.835Z,15.68
2022-10-24T09:22:55.672Z,15.67
2022-10-24T09:23:57.516Z,15.69
2022-10-24T09:24:59.379Z,15.71
2022-10-24T09:26:01.200Z,15.73
2022-10-24T09:27:03.018Z,15.75
2022-10-24T09:28:04.834Z,15.74
2022-10-24T09:29:06.673Z,15.75
2022-10-24T09:30:09.040Z,15.75
2022-10-24T09:31:10.851Z,15.74
2022-10-24T09:32:12.678Z,15.72
2022-10-24T09:33:14.492Z,15.71
2022-10-24T09:34:16.316Z,15.72
2022-10-24T09:35:18.221Z,15.73
2022-10-24T09:36:20.591Z,15.74
2022-10-24T09:37:22.534Z,15.75
2022-10-24T09:38:24.353Z,15.76
2022-10-24T09:39:26.177Z,15.77
2022-10-24T09:40:28.016Z,15.78
2022-10-24T09:41:29.850Z,15.79
2022-10-24T09:42:31.659Z,15.78
2022-10-24T09:43:33.473Z,15.79
2022-10-24T09:44:35.284Z,15.79
2022-10-24T09:45:37.150Z,15.81
2022-10-24T09:46:38.965Z,15.82
2022-10-24T09:47:40.753Z,15.83
2022-10-24T09:48:42.599Z,15.83
2022-10-24T09:49:44.451Z,15.84
2022-10-24T09:50:46.503Z,15.84
2022-10-24T09:51:48.394Z,15.84
2022-10-24T09:52:50.204Z,15.85
2022-10-24T09:53:52.021Z,15.86
2022-10-24T09:54:53.829Z,15.84
2022-10-24T09:55:55.682Z,15.85
2022-10-24T09:56:57.491Z,15.85
2022-10-24T09:57:59.281Z,15.85
2022-10-24T09:59:01.128Z,15.86
2022-10-24T10:00:02.929Z,15.85
2022-10-24T10:01:04.967Z,15.85
2022-10-24T10:02:07.123Z,15.86
2022-10-24T10:03:09.067Z,15.86
2022-10-24T10:04:13.077Z,15.86
2022-10-24T10:05:14.487Z,15.85
2022-10-24T10:06:16.640Z,15.86
2022-10-24T10:07:18.486Z,15.86
2022-10-24T10:08:20.296Z,15.85
2022-10-24T10:09:22.130Z,15.84
2022-10-24T10:10:24.047Z,15.83
2022-10-24T10:11:25.914Z,15.85
2022-10-24T10:12:27.707Z,15.86
2022-10-24T10:13:29.549Z,15.87
2022-10-24T10:14:31.368Z,15.88
2022-10-24T10:15:33.192Z,15.89
2022-10-24T10:16:35.160Z,15.88
2022-10-24T10:17:36.985Z,15.87
2022-10-24T10:18:38.823Z,15.87
2022-10-24T10:19:40.623Z,15.87
2022-10-24T10:20:42.450Z,15.87
2022-10-24T10:21:44.330Z,15.88
2022-10-24T10:22:46.276Z,15.88
2022-10-24T10:23:48.079Z,15.88
2022-10-24T10:24:51.328Z,15.87
2022-10-24T10:25:53.156Z,15.84
2022-10-24T10:26:55.333Z,15.84
2022-10-24T10:28:00.987Z,15.83
2022-10-24T10:29:00.740Z,15.82
2022-10-24T10:30:02.574Z,15.84
2022-10-24T10:31:04.389Z,15.84
2022-10-24T10:32:06.221Z,15.85
2022-10-24T10:33:08.042Z,15.86
2022-10-24T10:34:09.887Z,15.86
2022-10-24T10:35:11.747Z,15.88
2022-10-24T10:36:14.278Z,15.89
2022-10-24T10:37:16.168Z,15.90
2022-10-24T10:38:18.104Z,15.90
2022-10-24T10:39:19.932Z,15.92
2022-10-24T10:40:21.871Z,15.92
2022-10-24T10:41:23.669Z,15.92
2022-10-24T10:42:25.525Z,15.92
2022-10-24T10:43:27.359Z,15.92
2022-10-24T10:44:29.177Z,15.92
2022-10-24T10:45:30.994Z,15.92
2022-10-24T10:46:32.922Z,15.92
2022-10-24T10:47:34.789Z,15.90
2022-10-24T10:48:36.591Z,15.91
2022-10-24T10:49:38.406Z,15.89
2022-10-24T10:50:40.302Z,15.88
2022-10-24T10:51:42.141Z,15.87
2022-10-24T10:52:44.466Z,15.85
2022-10-24T10:53:46.631Z,15.86
2022-10-24T10:54:48.482Z,15.87
2022-10-24T10:55:50.315Z,15.87
2022-10-24T10:56:52.128Z,15.87
2022-10-24T10:57:53.972Z,15.83
2022-10-24T10:58:55.674Z,15.86
2022-10-24T10:59:57.494Z,15.87
2022-10-24T11:00:59.501Z,15.88
2022-10-24T11:02:01.706Z,15.87
2022-10-24T11:03:03.801Z,15.88
2022-10-24T11:04:05.684Z,15.89
2022-10-24T11:05:07.513Z,15.91
2022-10-24T11:06:09.952Z,15.93
2022-10-24T11:07:11.789Z,15.94
2022-10-24T11:08:14.838Z,15.97
2022-10-24T11:09:17.444Z,15.99
2022-10-24T11:10:19.272Z,16.00
2022-10-24T11:11:21.091Z,16.01
2022-10-24T11:12:22.887Z,16.02
2022-10-24T11:13:24.761Z,16.03
2022-10-24T11:14:26.602Z,16.03
2022-10-24T11:15:28.423Z,16.03
2022-10-24T11:16:30.254Z,16.04
2022-10-24T11:17:32.056Z,16.03
2022-10-24T11:18:35.431Z,16.04
2022-10-24T11:19:37.585Z,16.03
2022-10-24T11:20:39.444Z,16.02
2022-10-24T11:21:41.242Z,16.01
2022-10-24T11:22:43.062Z,16.00
2022-10-24T11:23:44.955Z,16.01
2022-10-24T11:24:46.812Z,16.01
2022-10-24T11:25:48.633Z,15.99
2022-10-24T11:26:50.452Z,15.98
2022-10-24T11:27:52.303Z,15.98
2022-10-24T11:28:54.197Z,16.00
2022-10-24T11:29:55.993Z,16.01
2022-10-24T11:30:57.800Z,16.02
2022-10-24T11:31:59.686Z,16.04
2022-10-24T11:33:01.533Z,16.04
2022-10-24T11:34:03.403Z,16.04
2022-10-24T11:35:05.238Z,16.03
2022-10-24T11:36:07.242Z,16.03
2022-10-24T11:37:09.055Z,16.02
2022-10-24T11:38:10.851Z,16.03
2022-10-24T11:39:12.721Z,16.01
2022-10-24T11:40:15.672Z,16.01
2022-10-24T11:41:17.991Z,16.03
2022-10-24T11:42:19.900Z,16.03
2022-10-24T11:43:22.010Z,16.01
2022-10-24T11:44:23.978Z,16.01
2022-10-24T11:45:25.778Z,16.02
2022-10-24T11:46:27.578Z,16.03
2022-10-24T11:47:29.378Z,16.05
2022-10-24T11:48:31.216Z,16.07
2022-10-24T11:49:33.075Z,16.08
2022-10-24T11:50:34.964Z,16.10
2022-10-24T11:51:37.662Z,16.10
2022-10-24T11:52:39.491Z,16.09
2022-10-24T11:53:41.334Z,16.10
2022-10-24T11:54:43.201Z,16.08
2022-10-24T11:55:45.021Z,16.07
2022-10-24T11:56:46.872Z,16.07
2022-10-24T11:57:48.711Z,16.06
2022-10-24T11:58:50.521Z,16.06
2022-10-24T11:59:52.383Z,16.06
2022-10-24T12:00:54.287Z,16.05
2022-10-24T12:01:56.110Z,16.05
2022-10-24T12:03:03.710Z,16.04
2022-10-24T12:04:23.794Z,16.05
2022-10-24T12:05:27.114Z,16.07
2022-10-24T12:06:29.046Z,16.07
2022-10-24T12:07:30.856Z,16.08
2022-10-24T12:08:32.672Z,16.11
2022-10-24T12:09:34.640Z,16.11
2022-10-24T12:10:36.590Z,16.13
2022-10-24T12:11:38.476Z,16.16
2022-10-24T12:12:40.294Z,16.16
2022-10-24T12:13:42.123Z,16.18
2022-10-24T12:14:43.958Z,16.18
2022-10-24T12:15:45.828Z,16.21
2022-10-24T12:16:47.742Z,16.22
2022-10-24T12:17:49.769Z,16.23
2022-10-24T12:18:51.578Z,16.22
2022-10-24T12:19:53.406Z,16.22
2022-10-24T12:20:55.486Z,16.23
2022-10-24T12:21:57.319Z,16.25
2022-10-24T12:22:59.127Z,16.26
2022-10-24T12:24:00.942Z,16.26
2022-10-24T12:25:02.955Z,16.26
2022-10-24T12:26:04.937Z,16.26
2022-10-24T12:27:06.760Z,16.26
2022-10-24T12:28:08.580Z,16.26
2022-10-24T12:29:10.412Z,16.28
2022-10-24T12:30:13.964Z,16.29
2022-10-24T12:31:15.810Z,16.31
2022-10-24T12:32:17.534Z,16.31
2022-10-24T12:33:19.362Z,16.33
2022-10-24T12:34:21.201Z,16.33
2022-10-24T12:35:30.452Z,16.34
2022-10-24T12:36:26.715Z,16.35
2022-10-24T12:37:28.535Z,16.36
2022-10-24T12:38:30.353Z,16.37
2022-10-24T12:39:32.189Z,16.39
2022-10-24T12:40:34.007Z,16.39
2022-10-24T12:41:35.874Z,16.38
2022-10-24T12:42:37.785Z,16.38
2022-10-24T12:43:39.584Z,16.38
2022-10-24T12:44:41.436Z,16.39
2022-10-24T12:45:43.268Z,16.41
2022-10-24T12:46:45.132Z,16.41
2022-10-24T12:47:47.020Z,16.42
2022-10-24T12:48:48.884Z,16.43
2022-10-24T12:49:52.039Z,16.42
2022-10-24T12:50:54.143Z,16.42
2022-10-24T12:51:56.039Z,16.43
2022-10-24T12:52:57.842Z,16.44
2022-10-24T12:53:59.669Z,16.43
2022-10-24T12:55:01.488Z,16.43
2022-10-24T12:56:03.424Z,16.42
2022-10-24T12:57:05.287Z,16.41
2022-10-24T12:58:07.145Z,16.41
2022-10-24T12:59:08.997Z,16.42
2022-10-24T13:00:11.002Z,16.43
2022-10-24T13:01:12.887Z,16.44
2022-10-24T13:02:14.837Z,16.45
2022-10-24T13:03:16.712Z,16.45
2022-10-24T13:04:18.520Z,16.47
2022-10-24T13:05:20.363Z,16.48
2022-10-24T13:06:22.292Z,16.48
2022-10-24T13:07:24.160Z,16.48
2022-10-24T13:08:25.985Z,16.48
2022-10-24T13:09:27.833Z,16.48
2022-10-24T13:10:29.782Z,16.48
2022-10-24T13:11:31.610Z,16.48
2022-10-24T13:12:33.573Z,16.50
2022-10-24T13:13:35.693Z,16.51
2022-10-24T13:14:37.498Z,16.50
2022-10-24T13:15:39.294Z,16.51
2022-10-24T13:16:41.114Z,16.51
2022-10-24T13:17:43.101Z,16.52
2022-10-24T13:18:45.002Z,16.52
2022-10-24T13:19:46.809Z,16.53